createdAt,value
2022-10-30T00:00:51.531Z,99004.09
2022-10-30T00:03:18.696Z,98997.09
2022-10-30T00:05:45.847Z,98990.13
2022-10-30T00:08:12.992Z,98994.50
2022-10-30T00:10:40.107Z,98986.69
2022-10-30T00:13:07.178Z,98988.47
2022-10-30T00:15:34.294Z,98991.91
2022-10-30T00:18:01.391Z,98997.09
2022-10-30T00:20:28.531Z,98996.28
2022-10-30T00:22:55.986Z,98998.97
2022-10-30T00:25:23.279Z,98996.28
2022-10-30T00:27:50.356Z,98992.00
2022-10-30T00:30:18.894Z,98982.44
2022-10-30T00:32:46.000Z,98994.59
2022-10-30T00:35:13.095Z,98993.78
2022-10-30T00:37:40.163Z,98992.84
2022-10-30T00:40:07.555Z,98992.84
2022-10-30T00:42:34.667Z,98998.97
2022-10-30T00:45:01.731Z,98993.78
2022-10-30T00:47:28.888Z,98990.34
2022-10-30T00:49:56.990Z,98990.34
2022-10-30T00:52:24.434Z,98988.56
2022-10-30T00:54:51.500Z,98984.28
2022-10-30T00:57:18.618Z,98990.25
2022-10-30T00:59:45.682Z,98982.53
2022-10-30T01:02:12.844Z,98986.91
2022-10-30T01:04:40.101Z,98991.16
2022-10-30T01:07:07.168Z,98986.91
2022-10-30T01:09:34.230Z,98984.28
2022-10-30T01:12:01.328Z,98980.88
2022-10-30T01:14:28.460Z,98982.63
2022-10-30T01:16:55.526Z,98987.84
2022-10-30T01:19:22.588Z,98976.59
2022-10-30T01:21:49.649Z,98983.47
2022-10-30T01:24:16.705Z,98975.66
2022-10-30T01:26:43.786Z,98976.59
2022-10-30T01:29:10.861Z,98973.16
2022-10-30T01:31:37.916Z,98975.78
2022-10-30T01:34:04.986Z,98977.44
2022-10-30T01:36:32.057Z,98963.56
2022-10-30T01:38:59.228Z,98964.50
2022-10-30T01:41:26.282Z,98973.16
2022-10-30T01:43:53.345Z,98962.84
2022-10-30T01:46:20.420Z,98969.72
2022-10-30T01:48:47.529Z,98958.47
2022-10-30T01:51:14.590Z,98958.47
2022-10-30T01:53:41.698Z,98960.34
2022-10-30T01:56:08.793Z,98955.16
2022-10-30T01:58:35.878Z,98968.06
2022-10-30T02:01:03.017Z,98962.84
2022-10-30T02:03:30.136Z,98962.75
2022-10-30T02:05:57.203Z,98967.09
2022-10-30T02:08:24.288Z,98957.75
2022-10-30T02:10:51.385Z,98962.97
2022-10-30T02:13:18.489Z,98959.41
2022-10-30T02:15:45.564Z,98952.53
2022-10-30T02:18:12.633Z,98949.13
2022-10-30T02:20:39.723Z,98955.03
2022-10-30T02:23:07.533Z,98958.47
2022-10-30T02:25:34.966Z,98955.97
2022-10-30T02:28:02.072Z,98959.53
2022-10-30T02:30:29.156Z,98955.25
2022-10-30T02:32:56.635Z,98955.16
2022-10-30T02:35:24.022Z,98955.25
2022-10-30T02:37:51.119Z,98952.53
2022-10-30T02:40:18.184Z,98951.72
2022-10-30T02:42:45.249Z,98957.63
2022-10-30T02:45:12.538Z,98955.03
2022-10-30T02:47:39.653Z,98946.50
2022-10-30T02:50:06.722Z,98945.66
2022-10-30T02:52:33.819Z,98952.63
2022-10-30T02:55:00.886Z,98941.38
2022-10-30T02:57:27.958Z,98947.44
2022-10-30T02:59:55.109Z,98946.50
2022-10-30T03:02:22.205Z,98950.03
2022-10-30T03:04:49.345Z,98952.63
2022-10-30T03:07:16.438Z,98947.44
2022-10-30T03:09:43.517Z,98943.16
2022-10-30T03:12:10.605Z,98949.31
2022-10-30T03:14:37.702Z,98946.72
2022-10-30T03:17:04.823Z,98945.91
2022-10-30T03:19:31.898Z,98947.56
2022-10-30T03:21:58.997Z,98944.13
2022-10-30T03:24:26.089Z,98944.13
2022-10-30T03:26:53.142Z,98944.94
2022-10-30T03:29:20.228Z,98944.94
2022-10-30T03:31:47.316Z,98944.13
2022-10-30T03:34:14.387Z,98939.84
2022-10-30T03:36:42.272Z,98943.28
2022-10-30T03:39:09.413Z,98932.13
2022-10-30T03:41:36.508Z,98932.97
2022-10-30T03:44:03.615Z,98932.13
2022-10-30T03:46:31.540Z,98931.19
2022-10-30T03:48:58.631Z,98929.53
2022-10-30T03:51:25.694Z,98929.53
2022-10-30T03:53:52.772Z,98917.47
2022-10-30T03:56:19.926Z,98928.59
2022-10-30T03:58:47.020Z,98927.75
2022-10-30T04:01:14.257Z,98926.94
2022-10-30T04:03:41.515Z,98926.94
2022-10-30T04:06:08.810Z,98922.53
2022-10-30T04:08:35.956Z,98923.50
2022-10-30T04:11:03.083Z,98925.28
2022-10-30T04:13:30.181Z,98920.06
2022-10-30T04:15:58.158Z,98934.75
2022-10-30T04:18:25.542Z,98938.28
2022-10-30T04:20:52.673Z,98938.28
2022-10-30T04:23:19.781Z,98937.34
2022-10-30T04:25:46.850Z,98940.91
2022-10-30T04:28:13.948Z,98940.06
2022-10-30T04:30:41.078Z,98941.72
2022-10-30T04:33:08.147Z,98946.94
2022-10-30T04:35:36.932Z,98944.44
2022-10-30T04:38:04.013Z,98944.44
2022-10-30T04:40:31.149Z,98934.94
2022-10-30T04:42:58.531Z,98944.44
2022-10-30T04:45:25.926Z,98952.25
2022-10-30T04:47:52.985Z,98952.25
2022-10-30T04:50:20.049Z,98956.63
2022-10-30T04:52:47.192Z,98959.22
2022-10-30T04:55:14.313Z,98955.69
2022-10-30T04:57:41.394Z,98955.69
2022-10-30T05:00:08.468Z,98951.41
2022-10-30T05:02:36.353Z,98954.00
2022-10-30T05:05:03.584Z,98949.75
2022-10-30T05:07:30.678Z,98949.75
2022-10-30T05:09:57.748Z,98948.94
2022-10-30T05:12:24.868Z,98934.25
2022-10-30T05:14:51.952Z,98934.25
2022-10-30T05:17:19.117Z,98935.06
2022-10-30T05:19:46.231Z,98930.81
2022-10-30T05:22:13.318Z,98929.97
2022-10-30T05:24:40.409Z,98928.31
2022-10-30T05:27:07.530Z,98931.63
2022-10-30T05:29:34.638Z,98933.41
2022-10-30T05:32:01.744Z,98932.56
2022-10-30T05:34:28.865Z,98936.13
2022-10-30T05:36:55.916Z,98926.53
2022-10-30T05:39:23.819Z,98928.31
2022-10-30T05:41:50.886Z,98936.03
2022-10-30T05:44:28.829Z,98936.94
2022-10-30T05:47:05.008Z,98940.38
2022-10-30T05:49:32.139Z,98938.72
2022-10-30T05:51:59.222Z,98949.97
2022-10-30T05:54:26.344Z,98944.06
2022-10-30T05:56:53.410Z,98942.28
2022-10-30T05:59:20.535Z,98949.25
2022-10-30T06:04:23.497Z,98957.06
2022-10-30T06:06:50.565Z,98958.84
2022-10-30T06:09:17.667Z,98956.94
2022-10-30T06:11:44.780Z,98954.47
2022-10-30T06:14:11.864Z,98961.34
2022-10-30T06:16:38.963Z,98957.91
2022-10-30T06:19:06.050Z,98966.66
2022-10-30T06:21:33.130Z,98962.28
2022-10-30T06:24:00.211Z,98966.66
2022-10-30T06:26:27.338Z,98964.88
2022-10-30T06:28:54.443Z,98971.88
2022-10-30T06:34:08.529Z,98977.06
2022-10-30T06:36:35.667Z,98971.97
2022-10-30T06:39:02.850Z,98977.16
2022-10-30T06:41:30.664Z,98978.94
2022-10-30T06:43:57.909Z,98977.28
2022-10-30T06:46:28.820Z,98977.16
2022-10-30T06:48:59.699Z,98982.50
2022-10-30T06:51:27.123Z,98980.59
2022-10-30T06:53:54.312Z,98976.34
2022-10-30T06:56:21.475Z,98978.94
2022-10-30T06:58:48.529Z,98983.31
2022-10-30T07:01:15.723Z,98984.16
2022-10-30T07:03:42.887Z,98987.59
2022-10-30T07:06:09.970Z,98980.72
2022-10-30T07:08:37.110Z,98981.53
2022-10-30T07:11:04.267Z,98981.53
2022-10-30T07:13:31.349Z,98982.38
2022-10-30T07:15:58.417Z,98985.94
2022-10-30T07:18:25.499Z,98987.69
2022-10-30T07:20:52.965Z,98992.91
2022-10-30T07:23:20.048Z,98985.94
2022-10-30T07:25:47.145Z,98985.94
2022-10-30T07:28:14.222Z,98979.78
2022-10-30T07:30:41.352Z,98982.50
2022-10-30T07:33:08.429Z,98981.53
2022-10-30T07:35:35.519Z,98979.88
2022-10-30T07:38:03.254Z,98979.06
2022-10-30T07:40:30.402Z,98981.53
2022-10-30T07:42:57.977Z,98987.59
2022-10-30T07:45:25.339Z,98984.97
2022-10-30T07:47:52.418Z,98991.13
2022-10-30T07:50:19.585Z,98993.75
2022-10-30T07:52:46.693Z,98990.31
2022-10-30T07:55:13.813Z,98994.56
2022-10-30T07:57:40.901Z,98992.09
2022-10-30T08:00:07.982Z,98994.56
2022-10-30T08:02:35.142Z,98992.91
2022-10-30T08:05:02.298Z,99003.22
2022-10-30T08:07:29.428Z,99001.44
2022-10-30T08:09:56.524Z,98994.47
2022-10-30T08:12:23.673Z,99000.50
2022-10-30T08:14:50.759Z,99000.50
2022-10-30T08:17:17.819Z,98997.09
2022-10-30T08:19:44.906Z,99000.50
2022-10-30T08:22:11.977Z,98999.56
2022-10-30T08:24:39.143Z,99000.50
2022-10-30T08:27:06.214Z,99007.38
2022-10-30T08:29:34.785Z,98997.09
2022-10-30T08:32:01.868Z,98997.78
2022-10-30T08:34:31.697Z,99000.28
2022-10-30T08:36:58.913Z,98999.44
2022-10-30T08:39:26.090Z,98998.53
2022-10-30T08:41:53.225Z,98999.34
2022-10-30T08:44:20.340Z,99001.00
2022-10-30T08:46:47.408Z,99006.97
2022-10-30T08:49:14.479Z,99002.59
2022-10-30T08:51:41.554Z,99008.63
2022-10-30T08:54:08.640Z,99005.88
2022-10-30T08:56:35.863Z,99004.22
2022-10-30T08:59:02.933Z,99010.28
2022-10-30T09:01:30.073Z,99013.63
2022-10-30T09:03:57.194Z,99004.03
2022-10-30T09:06:24.269Z,99000.59
2022-10-30T09:08:51.357Z,99006.63
2022-10-30T09:11:18.441Z,99002.25
2022-10-30T09:13:45.542Z,99004.84
2022-10-30T09:16:12.612Z,98996.22
2022-10-30T09:18:39.694Z,98998.69
2022-10-30T09:21:06.795Z,98999.63
2022-10-30T09:23:33.885Z,98996.91
2022-10-30T09:26:01.070Z,98992.22
2022-10-30T09:28:28.135Z,98987.84
2022-10-30T09:30:56.945Z,98983.34
2022-10-30T09:33:24.075Z,98989.50
2022-10-30T09:35:51.182Z,98982.19
2022-10-30T09:38:18.291Z,98983.66
2022-10-30T09:40:45.443Z,98983.41
2022-10-30T09:43:12.515Z,98980.81
2022-10-30T09:45:39.603Z,98981.53
2022-10-30T09:48:06.686Z,98977.16
2022-10-30T09:50:37.198Z,98988.00
2022-10-30T09:53:06.896Z,98982.50
2022-10-30T09:55:34.050Z,98981.41
2022-10-30T09:58:01.201Z,98985.38
2022-10-30T10:00:28.309Z,98987.75
2022-10-30T10:02:55.430Z,98984.31
2022-10-30T10:05:22.635Z,98984.44
2022-10-30T10:07:49.788Z,98981.34
2022-10-30T10:10:16.959Z,98981.00
2022-10-30T10:12:44.109Z,98981.81
2022-10-30T10:15:11.191Z,98982.66
2022-10-30T10:17:38.275Z,98976.47
2022-10-30T10:20:06.193Z,98974.72
2022-10-30T10:22:34.247Z,98975.56
2022-10-30T10:25:01.389Z,98977.09
2022-10-30T10:27:28.530Z,98979.69
2022-10-30T10:29:55.665Z,98975.34
2022-10-30T10:32:22.777Z,98977.84
2022-10-30T10:34:49.894Z,98980.44
2022-10-30T10:37:17.026Z,98978.66
2022-10-30T10:39:44.112Z,98973.56
2022-10-30T10:42:11.215Z,98968.34
2022-10-30T10:44:38.284Z,98960.53
2022-10-30T10:47:07.409Z,98963.97
2022-10-30T10:49:38.995Z,98961.97
2022-10-30T10:52:07.301Z,98956.63
2022-10-30T10:54:34.380Z,98959.84
2022-10-30T10:57:02.123Z,98950.25
2022-10-30T10:59:29.208Z,98950.38
2022-10-30T11:01:56.367Z,98955.19
2022-10-30T11:04:23.547Z,98955.09
2022-10-30T11:06:50.650Z,98953.69
2022-10-30T11:09:19.769Z,98951.00
2022-10-30T11:11:46.855Z,98944.81
2022-10-30T11:14:13.941Z,98945.78
2022-10-30T11:16:41.051Z,98944.00
2022-10-30T11:19:08.129Z,98944.22
2022-10-30T11:21:35.274Z,98943.66
2022-10-30T11:24:02.384Z,98933.00
2022-10-30T11:26:29.637Z,98940.69
2022-10-30T11:28:56.785Z,98939.56
2022-10-30T11:31:23.872Z,98935.25
2022-10-30T11:33:51.018Z,98938.41
2022-10-30T11:36:18.118Z,98931.50
2022-10-30T11:38:45.256Z,98929.63
2022-10-30T11:41:12.330Z,98939.09
2022-10-30T11:43:39.408Z,98932.00
2022-10-30T11:46:09.394Z,98926.06
2022-10-30T11:48:37.229Z,98927.97
2022-10-30T11:51:04.470Z,98927.03
2022-10-30T11:53:34.083Z,98917.28
2022-10-30T11:56:01.234Z,98914.59
2022-10-30T11:58:28.327Z,98921.34
2022-10-30T12:00:55.392Z,98920.28
2022-10-30T12:03:22.476Z,98920.28
2022-10-30T12:05:50.425Z,98921.00
2022-10-30T12:08:17.719Z,98924.44
2022-10-30T12:10:44.835Z,98920.88
2022-10-30T12:13:12.887Z,98920.75
2022-10-30T12:15:39.956Z,98921.84
2022-10-30T12:18:07.258Z,98916.50
2022-10-30T12:20:34.343Z,98902.66
2022-10-30T12:23:01.797Z,98904.31
2022-10-30T12:25:29.057Z,98901.59
2022-10-30T12:27:56.165Z,98909.88
2022-10-30T12:30:23.246Z,98907.41
2022-10-30T12:32:50.330Z,98901.84
2022-10-30T12:35:17.526Z,98901.97
2022-10-30T12:37:44.703Z,98903.63
2022-10-30T12:40:11.773Z,98906.22
2022-10-30T12:42:39.046Z,98899.09
2022-10-30T12:45:06.165Z,98899.91
2022-10-30T12:47:33.277Z,98893.78
2022-10-30T12:50:00.416Z,98896.47
2022-10-30T12:52:27.542Z,98896.03
2022-10-30T12:54:54.670Z,98898.50
2022-10-30T12:57:21.762Z,98896.47
2022-10-30T12:59:48.845Z,98892.00
2022-10-30T13:02:16.121Z,98886.78
2022-10-30T13:04:43.371Z,98885.72
2022-10-30T13:07:10.450Z,98877.16
2022-10-30T13:09:37.545Z,98883.13
2022-10-30T13:12:04.658Z,98879.66
2022-10-30T13:14:31.734Z,98882.84
2022-10-30T13:16:58.832Z,98874.56
2022-10-30T13:19:27.057Z,98878.50
2022-10-30T13:21:54.192Z,98865.78
2022-10-30T13:24:21.326Z,98868.28
2022-10-30T13:26:48.417Z,98869.94
2022-10-30T13:29:15.485Z,98864.72
2022-10-30T13:31:42.670Z,98863.66
2022-10-30T13:34:09.728Z,98862.94
2022-10-30T13:36:36.908Z,98856.66
2022-10-30T13:39:04.030Z,98859.28
2022-10-30T13:41:31.131Z,98858.44
2022-10-30T13:43:58.218Z,98858.53
2022-10-30T13:46:25.299Z,98858.09
2022-10-30T13:48:54.632Z,98856.53
2022-10-30T13:51:21.696Z,98858.91
2022-10-30T13:53:48.789Z,98861.06
2022-10-30T13:56:15.885Z,98859.03
2022-10-30T13:58:50.210Z,98857.94
2022-10-30T14:01:17.399Z,98864.94
2022-10-30T14:03:44.583Z,98868.53
2022-10-30T14:06:11.696Z,98861.38
2022-10-30T14:08:38.795Z,98871.50
2022-10-30T14:11:05.994Z,98865.19
2022-10-30T14:13:33.160Z,98865.53
2022-10-30T14:16:00.248Z,98870.91
2022-10-30T14:18:27.549Z,98868.97
2022-10-30T14:20:54.685Z,98864.50
2022-10-30T14:23:23.912Z,98863.41
2022-10-30T14:25:51.043Z,98867.56
2022-10-30T14:28:18.113Z,98862.84
2022-10-30T14:30:45.302Z,98864.34
2022-10-30T14:33:12.390Z,98870.31
2022-10-30T14:35:39.556Z,98866.88
2022-10-30T14:38:06.651Z,98862.25
2022-10-30T14:40:33.754Z,98861.38
2022-10-30T14:43:01.141Z,98860.09
2022-10-30T14:45:28.408Z,98859.88
2022-10-30T14:47:55.575Z,98867.09
2022-10-30T14:50:22.785Z,98862.72
2022-10-30T14:52:49.896Z,98869.34
2022-10-30T14:55:17.046Z,98870.16
2022-10-30T14:57:45.181Z,98868.38
2022-10-30T15:00:12.276Z,98871.50
2022-10-30T15:02:39.462Z,98865.09
2022-10-30T15:05:09.562Z,98872.19
2022-10-30T15:07:38.319Z,98874.94
2022-10-30T15:10:05.476Z,98871.22
2022-10-30T15:12:34.364Z,98871.00
2022-10-30T15:15:01.454Z,98867.78
2022-10-30T15:17:28.616Z,98873.72
2022-10-30T15:19:55.702Z,98870.91
2022-10-30T15:22:22.841Z,98868.03
2022-10-30T15:24:49.940Z,98870.06
2022-10-30T15:27:17.163Z,98867.47
2022-10-30T15:29:44.507Z,98871.00
2022-10-30T15:32:11.645Z,98865.09
2022-10-30T15:34:38.779Z,98867.78
2022-10-30T15:37:05.862Z,98875.03
2022-10-30T15:39:32.937Z,98870.75
2022-10-30T15:42:00.037Z,98872.53
2022-10-30T15:44:27.155Z,98867.47
2022-10-30T15:46:54.261Z,98868.38
2022-10-30T15:49:21.475Z,98872.78
2022-10-30T15:51:48.551Z,98868.50
2022-10-30T15:54:16.335Z,98865.91
2022-10-30T15:57:08.261Z,98868.50
2022-10-30T15:59:30.560Z,98867.69
2022-10-30T16:01:57.789Z,98869.72
2022-10-30T16:04:24.989Z,98877.16
2022-10-30T16:06:52.189Z,98879.41
2022-10-30T16:09:19.271Z,98881.66
2022-10-30T16:11:46.532Z,98879.19
2022-10-30T16:14:13.613Z,98884.53
2022-10-30T16:16:40.713Z,98879.66
2022-10-30T16:19:07.904Z,98888.34
2022-10-30T16:21:35.659Z,98884.63
2022-10-30T16:24:02.802Z,98886.41
2022-10-30T16:26:30.204Z,98890.09
2022-10-30T16:28:57.725Z,98888.56
2022-10-30T16:31:24.892Z,98883.34
2022-10-30T16:33:52.046Z,98888.78
2022-10-30T16:36:19.177Z,98887.97
2022-10-30T16:38:46.252Z,98887.00
2022-10-30T16:41:13.546Z,98886.19
2022-10-30T16:43:41.296Z,98885.38
2022-10-30T16:46:08.410Z,98884.53
2022-10-30T16:48:35.541Z,98885.59
2022-10-30T16:51:02.692Z,98884.63
2022-10-30T16:53:29.782Z,98892.38
2022-10-30T16:55:56.872Z,98889.25
2022-10-30T16:58:23.941Z,98895.44
2022-10-30T17:00:51.094Z,98900.78
2022-10-30T17:03:18.226Z,98909.91
2022-10-30T17:05:47.270Z,98903.13
2022-10-30T17:08:14.401Z,98908.13
2022-10-30T17:10:41.495Z,98906.22
2022-10-30T17:13:08.556Z,98912.13
2022-10-30T17:15:42.731Z,98909.66
2022-10-30T17:18:10.152Z,98913.31
2022-10-30T17:20:37.243Z,98920.94
2022-10-30T17:23:04.364Z,98917.50
2022-10-30T17:25:31.682Z,98923.41
2022-10-30T17:27:58.825Z,98924.50
2022-10-30T17:30:25.963Z,98925.56
2022-10-30T17:32:53.432Z,98920.56
2022-10-30T17:35:20.503Z,98920.44
2022-10-30T17:37:47.583Z,98921.28
2022-10-30T17:40:14.679Z,98928.06
2022-10-30T17:42:41.804Z,98929.34
2022-10-30T17:45:10.680Z,98934.78
2022-10-30T17:47:38.069Z,98931.34
2022-10-30T17:50:05.590Z,98930.16
2022-10-30T17:52:32.678Z,98931.34
2022-10-30T17:54:59.757Z,98940.22
2022-10-30T17:57:28.770Z,98936.09
2022-10-30T17:59:55.865Z,98938.09
2022-10-30T18:02:23.063Z,98931.31
2022-10-30T18:04:50.238Z,98934.97
2022-10-30T18:07:17.355Z,98937.59
2022-10-30T18:09:44.483Z,98936.16
2022-10-30T18:12:11.574Z,98943.06
2022-10-30T18:14:38.657Z,98937.94
2022-10-30T18:17:05.805Z,98944.09
2022-10-30T18:19:32.977Z,98941.63
2022-10-30T18:22:00.068Z,98947.88
2022-10-30T18:24:27.172Z,98943.63
2022-10-30T18:26:54.887Z,98948.84
2022-10-30T18:29:22.050Z,98948.94
2022-10-30T18:31:49.122Z,98944.66
2022-10-30T18:34:16.524Z,98945.63
2022-10-30T18:36:43.618Z,98950.91
2022-10-30T18:39:12.950Z,98950.91
2022-10-30T18:41:40.124Z,98957.06
2022-10-30T18:44:07.256Z,98955.41
2022-10-30T18:46:34.751Z,98953.72
2022-10-30T18:49:01.894Z,98946.03
2022-10-30T18:51:28.971Z,98945.22
2022-10-30T18:53:57.113Z,98944.38
2022-10-30T18:56:24.377Z,98941.88
2022-10-30T18:58:54.854Z,98948.88
2022-10-30T19:01:25.865Z,98951.84
2022-10-30T19:03:53.045Z,98947.38
2022-10-30T19:06:20.113Z,98948.09
2022-10-30T19:08:47.190Z,98946.31
2022-10-30T19:11:15.178Z,98941.00
2022-10-30T19:13:42.923Z,98941.84
2022-10-30T19:16:10.004Z,98942.66
2022-10-30T19:18:37.087Z,98943.50
2022-10-30T19:21:06.575Z,98947.06
2022-10-30T19:23:36.378Z,98949.44
2022-10-30T19:26:03.713Z,98945.97
2022-10-30T19:28:30.896Z,98949.44
2022-10-30T19:30:58.084Z,98952.50
2022-10-30T19:33:25.177Z,98949.75
2022-10-30T19:35:52.245Z,98947.06
2022-10-30T19:38:19.318Z,98950.50
2022-10-30T19:40:46.389Z,98949.66
2022-10-30T19:43:13.470Z,98952.28
2022-10-30T19:45:40.639Z,98947.88
2022-10-30T19:48:07.757Z,98954.88
2022-10-30T19:50:34.906Z,98953.19
2022-10-30T19:53:02.349Z,98960.91
2022-10-30T19:55:29.645Z,98963.53
2022-10-30T19:57:57.116Z,98965.31
2022-10-30T20:00:24.500Z,98962.69
2022-10-30T20:02:52.381Z,98967.09
2022-10-30T20:05:19.465Z,98968.00
2022-10-30T20:07:46.535Z,98973.22
2022-10-30T20:10:13.620Z,98968.84
2022-10-30T20:12:40.766Z,98971.44
2022-10-30T20:15:07.909Z,98971.44
2022-10-30T20:17:35.058Z,98974.06
2022-10-30T20:20:02.146Z,98981.03
2022-10-30T20:22:29.221Z,98975.97
2022-10-30T20:24:56.324Z,98986.25
2022-10-30T20:27:23.394Z,98977.53
2022-10-30T20:29:50.461Z,98988.22
2022-10-30T20:32:17.577Z,98990.22
2022-10-30T20:34:44.672Z,98989.63
2022-10-30T20:37:11.752Z,98994.97
2022-10-30T20:39:38.827Z,98993.31
2022-10-30T20:42:05.913Z,98990.91
2022-10-30T20:44:32.978Z,98997.91
2022-10-30T20:47:00.128Z,98988.44
2022-10-30T20:49:27.226Z,99000.72
2022-10-30T20:51:54.358Z,98995.53
2022-10-30T20:54:21.432Z,99000.00
2022-10-30T20:56:48.544Z,98995.66
2022-10-30T20:59:15.678Z,98997.50
2022-10-30T21:01:42.860Z,98997.50
2022-10-30T21:04:10.064Z,98995.84
2022-10-30T21:06:37.149Z,99002.84
2022-10-30T21:09:04.227Z,99002.03
2022-10-30T21:11:31.332Z,99002.03
2022-10-30T21:13:58.429Z,99005.53
2022-10-30T21:16:25.515Z,99009.94
2022-10-30T21:18:52.717Z,99010.88
2022-10-30T21:21:25.195Z,99008.38
2022-10-30T21:23:52.842Z,99010.97
2022-10-30T21:26:19.967Z,99018.78
2022-10-30T21:28:47.078Z,99011.94
2022-10-30T21:31:14.188Z,99007.66
2022-10-30T21:33:41.266Z,99003.41
2022-10-30T21:36:12.405Z,99006.00
2022-10-30T21:38:42.036Z,99004.31
2022-10-30T21:41:09.743Z,99001.72
2022-10-30T21:43:36.825Z,99002.53
2022-10-30T21:46:03.941Z,99002.66
2022-10-30T21:48:31.020Z,99009.66
2022-10-30T21:50:58.100Z,98999.22
2022-10-30T21:53:25.186Z,99001.00
2022-10-30T21:55:52.261Z,98995.81
2022-10-30T21:58:19.359Z,99001.00
2022-10-30T22:00:46.495Z,98995.06
2022-10-30T22:03:13.599Z,98997.56
2022-10-30T22:05:40.668Z,98989.84
2022-10-30T22:08:07.741Z,99004.66
2022-10-30T22:10:34.830Z,98996.84
2022-10-30T22:13:02.004Z,98996.84
2022-10-30T22:15:29.202Z,98989.03
2022-10-30T22:17:56.424Z,98996.84
2022-10-30T22:20:23.595Z,98995.19
2022-10-30T22:22:50.773Z,98994.34
2022-10-30T22:25:17.877Z,98987.59
2022-10-30T22:27:44.959Z,98998.84
2022-10-30T22:30:12.061Z,98991.84
2022-10-30T22:32:39.145Z,98989.25
2022-10-30T22:35:06.209Z,98984.16
2022-10-30T22:37:33.335Z,98984.16
2022-10-30T22:40:00.552Z,98989.38
2022-10-30T22:42:27.638Z,98997.19
2022-10-30T22:44:54.796Z,98995.41
2022-10-30T22:47:21.875Z,98986.84
2022-10-30T22:49:48.941Z,98986.84
2022-10-30T22:52:16.085Z,98997.28
2022-10-30T22:54:43.225Z,98998.22
2022-10-30T22:57:10.289Z,98993.00
2022-10-30T22:59:37.375Z,98998.22
2022-10-30T23:02:04.529Z,99003.44
2022-10-30T23:04:31.666Z,98997.41
2022-10-30T23:06:58.759Z,99003.56
2022-10-30T23:09:25.830Z,99002.72
2022-10-30T23:11:52.908Z,99001.78
2022-10-30T23:14:20.226Z,98996.78
2022-10-30T23:16:47.293Z,99006.25
2022-10-30T23:19:14.416Z,99004.50
2022-10-30T23:21:41.536Z,99011.47
2022-10-30T23:24:08.621Z,99015.00
2022-10-30T23:26:35.748Z,99012.41
2022-10-30T23:29:02.829Z,99016.78
2022-10-30T23:31:29.928Z,99026.38
2022-10-30T23:33:56.992Z,99020.22
2022-10-30T23:36:24.064Z,99028.16
2022-10-30T23:38:51.920Z,99021.19
2022-10-30T23:41:19.006Z,99020.44
2022-10-30T23:43:46.107Z,99024.81
2022-10-30T23:46:13.185Z,99029.94
2022-10-30T23:48:40.278Z,99030.84
2022-10-30T23:51:07.441Z,99024.00
2022-10-30T23:53:34.540Z,99024.81
2022-10-30T23:56:01.689Z,99025.75
2022-10-30T23:58:28.774Z,99025.75
